Time;durP1;ratioP1;P1;durP2;ratioP2;P2;SDS_P1;SDS_P2;PMS_P1;PMS_P2;Temp;Humidity;BMP_temperature;BMP_pressure;BME280_temperature;BME280_humidity;BME280_pressure;Samples;Min_cycle;Max_cycle;Signal;HPM_P1;HPM_P2
2022/10/26 00:01:21;;;;;;;;;2.00;2.00;;;;;19.87;71.32;-19738.28;4993915;28;45394;-88
2022/10/26 00:03:46;;;;;;;;;2.33;2.33;;;;;19.72;70.80;-19734.53;5041277;27;45456;-88
2022/10/26 00:06:15;;;;;;;;;2.00;2.00;;;;;20.16;71.24;-19745.88;4994939;27;45464;-89
2022/10/26 00:08:41;;;;;;;;;4.00;2.00;;;;;20.15;70.68;-19745.63;5003247;27;45749;-87
2022/10/26 00:11:07;;;;;;;;;1.00;1.00;;;;;20.15;71.44;-19745.75;4995434;27;45313;-87
2022/10/26 00:13:34;;;;;;;;;1.33;1.33;;;;;19.91;70.75;-19739.34;4990951;28;45543;-87
2022/10/26 00:16:00;;;;;;;;;2.00;2.00;;;;;20.06;70.69;-19743.34;5004134;27;45451;-87
2022/10/26 00:18:26;;;;;;;;;1.67;1.67;;;;;20.12;70.94;-19744.94;4988809;27;45743;-87
2022/10/26 00:20:51;;;;;;;;;2.33;2.33;;;;;20.08;70.35;-19743.75;4995241;27;45469;-88
2022/10/26 00:23:16;;;;;;;;;1.33;1.33;;;;;20.07;70.38;-19743.63;4995440;27;45401;-89
2022/10/26 00:25:43;;;;;;;;;2.67;2.67;;;;;20.10;70.91;-19744.41;4994150;28;45471;-88
2022/10/26 00:28:09;;;;;;;;;2.00;2.00;;;;;20.07;70.35;-19743.63;4978918;27;45399;-87
2022/10/26 00:30:37;;;;;;;;;1.00;1.00;;;;;19.94;70.68;-19740.16;4957914;28;45279;-88
2022/10/26 00:33:03;;;;;;;;;2.67;2.67;;;;;20.01;69.95;-19742.16;4996283;27;45404;-87
2022/10/26 00:35:28;;;;;;;;;1.33;1.33;;;;;20.00;70.14;-19741.75;5014709;27;45441;-87
2022/10/26 00:37:55;;;;;;;;;2.33;2.00;;;;;19.77;70.18;-19735.75;4995132;27;45416;-89
2022/10/26 00:40:20;;;;;;;;;3.33;2.00;;;;;20.01;70.26;-19742.00;4994925;27;45417;-88
2022/10/26 00:42:46;;;;;;;;;3.00;1.33;;;;;19.98;70.42;-19741.22;4993192;27;45480;-88
2022/10/26 00:45:18;;;;;;;;;2.33;2.33;;;;;20.05;70.40;-19742.94;4998559;27;47347;-88
2022/10/26 00:47:48;;;;;;;;;2.33;2.33;;;;;19.94;69.83;-19740.28;5002249;27;45770;-87
2022/10/26 00:50:27;;;;;;;;;3.33;3.00;;;;;20.03;70.07;-19742.53;4995524;27;45345;-88
2022/10/26 00:52:54;;;;;;;;;5.00;3.67;;;;;20.05;69.79;-19743.06;4993759;27;45342;-88
2022/10/26 00:55:23;;;;;;;;;4.33;3.00;;;;;19.98;69.39;-19741.34;4977007;28;46880;-87
2022/10/26 00:57:51;;;;;;;;;4.00;4.00;;;;;20.05;69.80;-19742.94;4994612;27;45308;-87
2022/10/26 01:00:17;;;;;;;;;4.00;4.00;;;;;19.80;70.03;-19736.53;4987688;28;45523;-88
2022/10/26 01:02:46;;;;;;;;;2.00;2.00;;;;;19.85;69.62;-19737.75;4990745;27;45216;-87
2022/10/26 01:05:14;;;;;;;;;4.00;4.00;;;;;19.80;69.68;-19736.69;4994789;27;45381;-78
2022/10/26 01:07:41;;;;;;;;;4.33;4.33;;;;;19.72;69.70;-19734.53;4994916;27;45558;-79
2022/10/26 01:10:08;;;;;;;;;4.67;4.67;;;;;19.85;69.84;-19737.75;4994926;27;45460;-78
2022/10/26 01:12:33;;;;;;;;;5.00;5.00;;;;;19.96;69.65;-19740.69;4974165;28;45475;-79
2022/10/26 01:14:59;;;;;;;;;6.33;4.00;;;;;19.89;70.02;-19738.81;4992294;27;46147;-79
2022/10/26 01:17:43;;;;;;;;;5.33;4.33;;;;;20.01;69.57;-19742.16;4993769;28;45403;-79
2022/10/26 01:20:31;;;;;;;;;3.00;3.00;;;;;19.92;69.60;-19739.59;4994660;27;45409;-79
2022/10/26 01:23:08;;;;;;;;;4.00;4.00;;;;;20.02;70.13;-19742.28;4997349;27;45471;-79
2022/10/26 01:25:39;;;;;;;;;3.67;3.67;;;;;20.00;69.71;-19741.75;4993298;27;47294;-79
2022/10/26 01:28:18;;;;;;;;;5.00;3.33;;;;;19.96;70.14;-19740.81;4994439;27;45357;-79
2022/10/26 01:30:47;;;;;;;;;4.67;3.67;;;;;19.87;69.63;-19738.28;5003579;27;45375;-79
2022/10/26 01:33:21;;;;;;;;;4.00;4.00;;;;;20.00;69.54;-19741.88;4986419;28;45635;-79
2022/10/26 01:35:55;;;;;;;;;5.33;4.00;;;;;20.00;70.07;-19741.88;5055841;27;46538;-79
2022/10/26 01:38:45;;;;;;;;;3.33;1.33;;;;;19.97;69.57;-19741.09;5027272;27;45424;-79
2022/10/26 01:41:27;;;;;;;;;6.67;5.00;;;;;19.95;69.98;-19740.41;4994818;28;45445;-79
2022/10/26 01:43:58;;;;;;;;;2.00;2.00;;;;;19.97;70.00;-19740.94;4994295;27;45543;-79
2022/10/26 01:46:27;;;;;;;;;3.33;3.00;;;;;19.80;69.62;-19736.69;4994583;28;45464;-79
2022/10/26 01:48:58;;;;;;;;;2.67;2.67;;;;;19.84;69.91;-19737.47;4993844;27;45299;-79
2022/10/26 01:51:25;;;;;;;;;3.00;2.00;;;;;19.72;70.13;-19734.41;4998616;27;45463;-79
2022/10/26 01:53:50;;;;;;;;;1.67;1.67;;;;;19.68;69.91;-19733.47;5018513;27;45497;-79
2022/10/26 01:56:30;;;;;;;;;4.00;2.33;;;;;19.71;69.87;-19734.13;5005915;27;45475;-79
2022/10/26 01:59:02;;;;;;;;;1.00;1.00;;;;;19.94;70.39;-19740.16;5010259;27;45614;-79
2022/10/26 02:01:41;;;;;;;;;3.67;2.33;;;;;19.99;69.70;-19741.63;5006643;27;45295;-79
2022/10/26 02:04:24;;;;;;;;;3.00;3.00;;;;;20.01;70.21;-19742.00;5014093;27;45382;-79
2022/10/26 02:07:06;;;;;;;;;2.00;2.00;;;;;20.02;69.63;-19742.41;5011027;27;45557;-79
2022/10/26 02:09:44;;;;;;;;;3.33;2.00;;;;;20.03;69.69;-19742.69;5003606;27;45492;-78
2022/10/26 02:12:38;;;;;;;;;3.00;2.00;;;;;19.75;69.44;-19735.34;5011149;27;45488;-78
2022/10/26 02:15:28;;;;;;;;;2.33;2.33;;;;;19.99;69.97;-19741.63;5000744;27;45409;-79
2022/10/26 02:17:59;;;;;;;;;5.67;2.00;;;;;19.89;69.17;-19738.94;5010834;27;45379;-78
2022/10/26 02:20:41;;;;;;;;;2.75;1.00;;;;;19.87;69.69;-19738.41;5006686;27;45378;-78
2022/10/26 02:23:08;;;;;;;;;1.50;1.00;;;;;19.99;69.38;-19741.63;5009553;27;45437;-78
2022/10/26 02:25:43;;;;;;;;;1.00;1.00;;;;;19.94;69.95;-19740.28;4998362;27;45277;-78
2022/10/26 02:28:14;;;;;;;;;1.00;0.67;;;;;19.99;69.78;-19741.47;5001631;27;45906;-79
2022/10/26 02:30:42;;;;;;;;;1.67;1.00;;;;;20.04;70.12;-19742.81;5005065;27;45333;-79
2022/10/26 02:33:11;;;;;;;;;3.00;3.00;;;;;19.85;69.74;-19737.88;4995759;27;45259;-78
2022/10/26 02:35:40;;;;;;;;;1.00;1.00;;;;;19.88;69.79;-19738.53;5000352;27;45391;-78
2022/10/26 02:38:10;;;;;;;;;3.33;2.00;;;;;20.03;69.29;-19742.69;5008383;27;46379;-79
2022/10/26 02:40:37;;;;;;;;;2.00;2.00;;;;;20.13;69.67;-19745.06;5001190;27;45451;-78
2022/10/26 02:43:12;;;;;;;;;0.00;0.00;;;;;20.14;69.75;-19745.34;4997548;27;45481;-78
2022/10/26 02:45:44;;;;;;;;;1.00;1.00;;;;;20.07;69.76;-19743.47;5000055;27;45310;-78
2022/10/26 02:48:09;;;;;;;;;1.00;1.00;;;;;20.17;69.80;-19746.16;5007353;27;46590;-79
2022/10/26 02:50:53;;;;;;;;;3.00;1.33;;;;;20.19;69.14;-19746.69;5012133;27;45392;-79
2022/10/26 02:53:40;;;;;;;;;1.00;1.00;;;;;20.10;69.27;-19744.41;4985714;27;45381;-79
2022/10/26 02:56:15;;;;;;;;;1.00;1.00;;;;;20.13;69.42;-19745.06;5007667;27;45579;-79
2022/10/26 02:58:46;;;;;;;;;3.00;1.00;;;;;19.97;69.09;-19741.09;5005391;27;46101;-78
2022/10/26 03:01:12;;;;;;;;;3.00;2.00;;;;;20.21;69.04;-19747.34;5002227;27;45487;-79
2022/10/26 03:03:38;;;;;;;;;3.00;1.00;;;;;20.13;68.92;-19745.22;5004489;27;45326;-79
2022/10/26 03:06:03;;;;;;;;;0.00;0.00;;;;;20.26;68.79;-19748.41;4999287;27;45542;-88
2022/10/26 03:08:29;;;;;;;;;2.50;1.00;;;;;20.03;68.87;-19742.69;4987098;27;45426;-87
2022/10/26 03:10:55;;;;;;;;;1.00;1.00;;;;;20.30;69.21;-19749.47;5061793;27;45512;-88
2022/10/26 03:13:21;;;;;;;;;1.00;1.00;;;;;20.22;69.27;-19747.59;4987847;27;45459;-88
2022/10/26 03:15:46;;;;;;;;;2.00;2.00;;;;;20.31;68.79;-19749.75;5027149;27;45552;-88
2022/10/26 03:18:12;;;;;;;;;1.67;1.67;;;;;19.96;69.13;-19740.81;4995842;27;45440;-87
2022/10/26 03:20:37;;;;;;;;;2.33;1.00;;;;;20.32;68.90;-19750.00;4996395;27;45441;-87
2022/10/26 03:23:02;;;;;;;;;3.00;1.67;;;;;20.10;68.72;-19744.28;4996729;27;45445;-87
2022/10/26 03:25:28;;;;;;;;;2.00;2.00;;;;;20.17;68.97;-19746.16;5002443;27;45533;-87
2022/10/26 03:28:01;;;;;;;;;1.33;1.00;;;;;20.30;69.05;-19749.47;5038840;27;46090;-87
2022/10/26 03:30:27;;;;;;;;;1.00;1.00;;;;;20.25;69.17;-19748.28;4994456;28;45325;-88
2022/10/26 03:32:54;;;;;;;;;2.00;2.00;;;;;20.27;68.81;-19748.69;4977353;28;45455;-87
2022/10/26 03:35:20;;;;;;;;;1.00;1.00;;;;;20.23;69.20;-19747.88;4977973;27;45458;-88
2022/10/26 03:37:45;;;;;;;;;1.67;1.00;;;;;20.24;68.87;-19748.00;4995696;27;46185;-88
2022/10/26 03:40:11;;;;;;;;;1.33;1.33;;;;;20.05;68.97;-19742.94;5009577;27;45420;-87
2022/10/26 03:42:37;;;;;;;;;1.33;1.00;;;;;20.24;68.75;-19748.00;4996047;27;45329;-88
2022/10/26 03:45:04;;;;;;;;;1.25;1.25;;;;;20.21;68.53;-19747.22;4995947;27;45255;-87
2022/10/26 03:47:29;;;;;;;;;1.00;1.00;;;;;20.17;68.69;-19746.16;4995157;27;47161;-88
2022/10/26 03:49:55;;;;;;;;;1.00;1.00;;;;;20.14;68.59;-19745.47;4995086;27;45444;-88
2022/10/26 03:52:22;;;;;;;;;1.67;1.00;;;;;20.06;69.35;-19743.22;4995535;27;45558;-87
2022/10/26 03:54:48;;;;;;;;;1.25;1.25;;;;;20.09;68.80;-19744.16;4995686;27;45471;-87
2022/10/26 03:57:13;;;;;;;;;2.00;1.33;;;;;19.85;69.10;-19737.75;5009550;27;46196;-87
2022/10/26 03:59:40;;;;;;;;;0.75;0.75;;;;;20.02;69.11;-19742.41;4995263;27;45535;-87
2022/10/26 04:02:05;;;;;;;;;1.00;1.00;;;;;20.00;69.13;-19741.75;4978138;28;45671;-88
2022/10/26 04:04:31;;;;;;;;;1.00;1.00;;;;;19.91;69.47;-19739.47;4995984;27;45493;-78
2022/10/26 04:06:57;;;;;;;;;1.00;1.00;;;;;19.79;69.67;-19736.41;4981091;28;47878;-79
2022/10/26 04:09:22;;;;;;;;;2.00;2.00;;;;;19.68;70.02;-19733.34;4995330;27;45359;-79
2022/10/26 04:11:47;;;;;;;;;3.00;2.00;;;;;19.73;69.74;-19734.81;4995230;28;45345;-78
2022/10/26 04:14:13;;;;;;;;;5.00;1.33;;;;;19.90;69.61;-19739.22;5009773;27;45393;-79
2022/10/26 04:16:39;;;;;;;;;3.00;1.00;;;;;19.85;69.88;-19737.75;4994943;27;46054;-79
2022/10/26 04:19:05;;;;;;;;;1.00;1.00;;;;;19.84;70.20;-19737.59;4995609;27;45419;-79
2022/10/26 04:21:32;;;;;;;;;1.00;1.00;;;;;19.83;70.41;-19737.34;4993415;28;45427;-79
2022/10/26 04:23:57;;;;;;;;;1.00;1.00;;;;;19.71;70.07;-19734.13;4994664;27;45341;-79
2022/10/26 04:26:23;;;;;;;;;1.33;1.33;;;;;19.69;69.98;-19733.59;4993842;27;45410;-79
2022/10/26 04:28:48;;;;;;;;;1.00;0.33;;;;;19.64;70.29;-19732.28;4995132;27;45454;-79
2022/10/26 04:31:14;;;;;;;;;0.33;0.33;;;;;19.76;70.50;-19735.59;4995912;28;45300;-79
2022/10/26 04:33:40;;;;;;;;;1.00;1.00;;;;;19.77;70.14;-19735.75;4991139;27;45436;-75
2022/10/26 04:36:05;;;;;;;;;1.00;1.00;;;;;19.66;69.83;-19732.81;4997246;28;45945;-78
2022/10/26 04:38:31;;;;;;;;;2.67;1.00;;;;;19.60;70.12;-19731.34;4985707;27;45442;-79
2022/10/26 04:40:57;;;;;;;;;1.33;1.33;;;;;19.53;70.37;-19729.59;5005305;27;45485;-79
2022/10/26 04:43:22;;;;;;;;;1.00;1.00;;;;;19.55;69.93;-19730.13;4997514;27;45422;-78
2022/10/26 04:45:47;;;;;;;;;1.00;1.00;;;;;19.68;70.38;-19733.34;5000176;27;46043;-78
2022/10/26 04:48:13;;;;;;;;;3.00;1.33;;;;;19.60;70.75;-19731.34;4990915;28;45290;-78
2022/10/26 04:50:39;;;;;;;;;0.67;0.67;;;;;19.61;70.54;-19731.59;4994973;27;45321;-79
2022/10/26 04:53:06;;;;;;;;;1.33;1.33;;;;;19.64;70.28;-19732.28;4996186;27;45758;-79
2022/10/26 04:55:32;;;;;;;;;5.67;2.00;;;;;19.39;70.61;-19725.88;5005597;27;46008;-83
2022/10/26 04:58:00;;;;;;;;;1.00;1.00;;;;;19.52;70.25;-19729.19;4992682;27;45511;-80
2022/10/26 05:00:25;;;;;;;;;1.00;1.00;;;;;19.59;70.75;-19731.19;4981014;28;45405;-79
2022/10/26 05:02:51;;;;;;;;;1.33;1.33;;;;;19.58;70.50;-19730.94;5065564;27;45686;-80
2022/10/26 05:05:16;;;;;;;;;3.00;2.00;;;;;19.34;70.71;-19724.53;4993964;27;47008;-77
2022/10/26 05:07:42;;;;;;;;;0.67;0.67;;;;;19.36;70.40;-19725.06;5019803;27;45390;-87
2022/10/26 05:10:08;;;;;;;;;2.00;2.00;;;;;19.54;70.83;-19729.88;4987168;27;45391;-86
2022/10/26 05:12:33;;;;;;;;;1.00;1.00;;;;;19.53;70.50;-19729.47;4977456;27;45279;-86
2022/10/26 05:14:58;;;;;;;;;1.00;1.00;;;;;19.50;70.68;-19728.66;4980512;27;46314;-85
2022/10/26 05:17:25;;;;;;;;;1.00;1.00;;;;;19.31;70.56;-19723.72;4993606;27;45433;-86
2022/10/26 05:19:54;;;;;;;;;3.33;1.00;;;;;19.47;71.23;-19727.88;4999426;27;45482;-86
2022/10/26 05:22:23;;;;;;;;;2.00;1.00;;;;;19.32;71.07;-19724.13;4984422;28;45582;-87
2022/10/26 05:24:49;;;;;;;;;0.00;0.00;;;;;19.47;71.22;-19727.88;4982855;27;46116;-86
2022/10/26 05:27:14;;;;;;;;;1.00;1.00;;;;;19.17;71.29;-19720.13;4996915;27;45316;-86
2022/10/26 05:29:39;;;;;;;;;3.00;2.00;;;;;19.46;71.21;-19727.72;5010261;27;45479;-86
2022/10/26 05:32:05;;;;;;;;;2.00;1.00;;;;;19.27;70.91;-19722.66;5034608;27;45549;-86
2022/10/26 05:34:30;;;;;;;;;3.00;0.00;;;;;19.30;71.40;-19723.47;4999106;28;45381;-86
2022/10/26 05:36:55;;;;;;;;;0.00;0.00;;;;;19.43;71.31;-19726.78;5006857;27;45424;-86
2022/10/26 05:39:21;;;;;;;;;4.00;1.00;;;;;19.25;71.57;-19722.13;5043395;28;45412;-85
2022/10/26 05:41:46;;;;;;;;;1.00;1.00;;;;;19.17;71.40;-19720.13;5009229;28;45778;-86
2022/10/26 05:44:12;;;;;;;;;2.50;0.25;;;;;19.41;71.67;-19726.41;4979319;28;47890;-79
2022/10/26 05:46:37;;;;;;;;;3.00;1.00;;;;;19.39;72.05;-19726.00;4977324;28;45420;-86
2022/10/26 05:49:02;;;;;;;;;1.00;1.00;;;;;19.37;72.03;-19725.34;4998964;27;45385;-86
2022/10/26 05:51:27;;;;;;;;;1.00;1.00;;;;;19.15;71.79;-19719.72;4999263;27;45571;-86
2022/10/26 05:53:53;;;;;;;;;1.33;1.33;;;;;19.03;71.94;-19716.38;4995128;27;45691;-86
2022/10/26 05:56:41;;;;;;;;;1.00;1.00;;;;;19.34;71.91;-19724.66;4974346;27;45471;-85
2022/10/26 05:59:14;;;;;;;;;1.67;0.00;;;;;19.36;72.07;-19725.06;4988583;27;45334;-86
2022/10/26 06:01:54;;;;;;;;;1.67;1.00;;;;;19.36;72.41;-19725.06;4984611;27;45472;-86
2022/10/26 06:04:37;;;;;;;;;1.00;0.00;;;;;19.32;72.07;-19724.13;4990261;27;45335;-87
2022/10/26 06:07:09;;;;;;;;;1.00;1.00;;;;;19.33;71.93;-19724.41;4993888;27;45412;-81
2022/10/26 06:09:34;;;;;;;;;1.00;1.00;;;;;19.04;72.22;-19716.78;4994128;27;45440;-81
2022/10/26 06:12:00;;;;;;;;;3.00;2.00;;;;;19.25;72.34;-19722.13;5043415;27;45462;-81
2022/10/26 06:14:26;;;;;;;;;2.67;2.00;;;;;19.36;71.91;-19725.06;5016728;27;46281;-81
2022/10/26 06:17:13;;;;;;;;;3.33;1.00;;;;;19.37;71.86;-19725.47;4993611;28;45424;-81
2022/10/26 06:19:58;;;;;;;;;4.33;1.33;;;;;19.40;71.80;-19726.13;4993513;27;45370;-80
2022/10/26 06:22:26;;;;;;;;;3.00;0.33;;;;;19.40;71.75;-19726.13;5033236;27;45634;-79
2022/10/26 06:25:20;;;;;;;;;1.00;1.00;;;;;19.38;71.81;-19725.72;4984740;28;48852;-80
2022/10/26 06:27:50;;;;;;;;;1.00;1.00;;;;;19.39;71.94;-19726.00;4972710;28;45521;-79
2022/10/26 06:30:16;;;;;;;;;0.33;0.33;;;;;19.25;72.03;-19722.13;4990841;27;45231;-79
2022/10/26 06:32:45;;;;;;;;;1.50;1.50;;;;;19.33;71.70;-19724.25;4993919;27;45376;-79
2022/10/26 06:35:46;;;;;;;;;1.00;1.00;;;;;19.35;72.10;-19724.78;4992977;27;47131;-79
2022/10/26 06:38:21;;;;;;;;;2.00;2.00;;;;;19.33;71.67;-19724.41;5013620;28;45544;-79
2022/10/26 06:40:50;;;;;;;;;1.00;1.00;;;;;19.00;71.95;-19715.72;5016122;28;45469;-79
2022/10/26 06:43:24;;;;;;;;;1.00;1.00;;;;;19.16;71.54;-19719.84;5017782;28;45420;-79
2022/10/26 06:46:09;;;;;;;;;2.00;2.00;;;;;19.29;72.00;-19723.19;5017070;28;45644;-80
2022/10/26 06:48:57;;;;;;;;;1.00;1.00;;;;;19.13;72.05;-19719.19;5016859;28;45473;-79
2022/10/26 06:51:23;;;;;;;;;1.00;1.00;;;;;19.18;71.90;-19720.53;5017292;28;45422;-79
2022/10/26 06:54:00;;;;;;;;;0.75;0.75;;;;;19.23;72.11;-19721.72;5017160;28;45653;-79
2022/10/26 06:56:26;;;;;;;;;0.25;0.25;;;;;19.16;72.20;-19719.84;5017132;28;45409;-81
2022/10/26 06:58:55;;;;;;;;;1.00;1.00;;;;;19.09;72.07;-19718.13;5016846;28;45269;-81
2022/10/26 07:01:20;;;;;;;;;1.00;1.00;;;;;19.28;71.87;-19723.06;5000534;28;45643;-79
2022/10/26 07:03:45;;;;;;;;;3.00;2.00;;;;;19.26;71.51;-19722.53;5000397;28;45578;-79
2022/10/26 07:06:11;;;;;;;;;3.00;1.67;;;;;19.07;72.04;-19717.59;5017409;28;46072;-90
2022/10/26 07:08:36;;;;;;;;;1.33;1.00;;;;;19.29;72.06;-19723.31;5017852;28;45603;-89
2022/10/26 07:11:03;;;;;;;;;1.00;1.00;;;;;19.13;72.11;-19719.06;5017713;28;45632;-89
2022/10/26 07:13:28;;;;;;;;;2.33;2.00;;;;;19.10;72.18;-19718.38;5010648;28;45423;-89
2022/10/26 07:15:54;;;;;;;;;0.67;0.67;;;;;19.30;72.18;-19723.59;4976213;27;46576;-89
2022/10/26 07:18:19;;;;;;;;;1.00;1.00;;;;;19.12;71.99;-19718.78;4978432;28;45436;-88
2022/10/26 07:20:44;;;;;;;;;3.33;2.00;;;;;19.30;71.85;-19723.59;4996492;27;45288;-88
2022/10/26 07:23:10;;;;;;;;;1.00;1.00;;;;;19.31;71.58;-19723.84;4996302;27;45420;-89
2022/10/26 07:25:38;;;;;;;;;2.75;0.50;;;;;19.28;71.49;-19722.94;4995063;27;45466;-89
2022/10/26 07:28:05;;;;;;;;;1.00;1.00;;;;;19.28;72.05;-19722.94;4996246;27;45310;-89
2022/10/26 07:30:30;;;;;;;;;1.00;1.00;;;;;19.33;72.02;-19724.41;5069423;27;45523;-89
2022/10/26 07:33:04;;;;;;;;;1.00;1.00;;;;;19.35;72.15;-19724.78;4975243;28;45600;-89
2022/10/26 07:35:29;;;;;;;;;0.33;0.33;;;;;19.33;71.97;-19724.41;4994120;27;45342;-88
2022/10/26 07:37:57;;;;;;;;;2.33;2.00;;;;;19.12;71.79;-19718.78;4975109;28;45819;-88
2022/10/26 07:40:22;;;;;;;;;0.00;0.00;;;;;19.29;71.84;-19723.31;4992354;27;45416;-88
2022/10/26 07:42:47;;;;;;;;;3.00;1.00;;;;;19.37;71.76;-19725.34;4996432;27;45626;-89
2022/10/26 07:45:14;;;;;;;;;1.00;1.00;;;;;19.39;72.12;-19725.88;4995667;27;47478;-89
2022/10/26 07:47:39;;;;;;;;;3.00;1.33;;;;;19.33;71.54;-19724.41;5029234;27;45449;-89
2022/10/26 07:50:07;;;;;;;;;0.33;0.33;;;;;19.37;71.99;-19725.47;5013784;28;45477;-89
2022/10/26 07:52:34;;;;;;;;;1.67;1.00;;;;;19.35;71.68;-19724.94;4994658;27;45557;-88
2022/10/26 07:55:00;;;;;;;;;1.33;1.33;;;;;19.38;72.00;-19725.72;4995657;27;45387;-88
2022/10/26 07:57:25;;;;;;;;;1.33;1.33;;;;;19.41;72.18;-19726.41;4980613;27;45502;-88
2022/10/26 07:59:50;;;;;;;;;0.67;0.67;;;;;19.19;72.13;-19720.66;4995704;27;45813;-88
2022/10/26 08:02:16;;;;;;;;;2.67;2.00;;;;;19.48;71.68;-19728.13;4995800;27;45436;-89
2022/10/26 08:04:41;;;;;;;;;1.50;1.50;;;;;19.30;71.95;-19723.47;4996111;27;46199;-89
2022/10/26 08:07:06;;;;;;;;;0.75;0.00;;;;;19.51;71.63;-19729.06;4978081;28;45481;-88
2022/10/26 08:09:32;;;;;;;;;0.50;0.50;;;;;19.50;71.77;-19728.81;4995599;27;45450;-87
2022/10/26 08:11:57;;;;;;;;;3.00;1.67;;;;;19.38;71.56;-19725.59;4994661;27;45423;-88
2022/10/26 08:14:22;;;;;;;;;3.67;1.00;;;;;19.61;71.72;-19731.59;4994919;27;47379;-88
2022/10/26 08:16:51;;;;;;;;;2.33;1.00;;;;;19.66;71.61;-19732.94;4995403;27;45341;-88
2022/10/26 08:19:16;;;;;;;;;2.00;1.00;;;;;19.64;71.76;-19732.28;4977317;27;45327;-88
2022/10/26 08:21:42;;;;;;;;;1.00;1.00;;;;;19.68;71.60;-19733.34;4982845;27;45466;-89
2022/10/26 08:24:07;;;;;;;;;0.75;0.75;;;;;19.77;71.64;-19735.88;4995336;27;46191;-88
2022/10/26 08:26:32;;;;;;;;;1.00;1.00;;;;;19.74;71.32;-19734.94;4994010;27;45173;-88
2022/10/26 08:28:58;;;;;;;;;1.67;1.00;;;;;19.92;70.78;-19739.75;4995406;27;45264;-88
2022/10/26 08:31:23;;;;;;;;;2.00;1.00;;;;;19.97;71.21;-19740.94;4995674;27;45219;-88
2022/10/26 08:33:49;;;;;;;;;1.00;1.00;;;;;19.92;71.19;-19739.75;4995243;27;46861;-88
2022/10/26 08:36:21;;;;;;;;;1.33;1.00;;;;;19.94;70.64;-19740.16;4994996;28;45294;-88
2022/10/26 08:38:47;;;;;;;;;9.00;7.67;;;;;20.09;70.64;-19744.00;4995226;27;45386;-88
2022/10/26 08:41:13;;;;;;;;;3.00;1.00;;;;;20.30;70.40;-19749.63;4995360;27;45549;-87
2022/10/26 08:43:46;;;;;;;;;1.00;1.00;;;;;20.25;70.15;-19748.28;4975056;27;47246;-89
2022/10/26 08:46:27;;;;;;;;;1.00;1.00;;;;;20.45;69.82;-19753.59;4977388;28;45969;-88
2022/10/26 08:49:18;;;;;;;;;1.00;1.00;;;;;20.54;69.75;-19755.75;4995097;27;45361;-88
2022/10/26 08:51:43;;;;;;;;;1.00;1.00;;;;;20.58;70.17;-19756.94;4995497;27;45303;-88
2022/10/26 08:54:13;;;;;;;;;0.67;0.00;;;;;20.71;68.79;-19760.16;4994861;27;45447;-87
2022/10/26 08:56:49;;;;;;;;;3.00;1.33;;;;;20.76;68.95;-19761.59;4995103;27;45594;-88
2022/10/26 08:59:34;;;;;;;;;2.00;0.00;;;;;20.78;68.09;-19762.00;4994785;27;45425;-88
2022/10/26 09:02:01;;;;;;;;;1.00;1.00;;;;;20.91;68.68;-19765.47;4994684;27;45405;-89
2022/10/26 09:04:28;;;;;;;;;2.00;1.00;;;;;21.01;68.61;-19768.00;4994647;27;46523;-89
2022/10/26 09:07:12;;;;;;;;;1.00;1.00;;;;;21.11;67.55;-19770.53;4994869;27;45283;-89
2022/10/26 09:09:56;;;;;;;;;1.00;1.00;;;;;21.19;67.99;-19772.81;4994569;27;45435;-88
2022/10/26 09:12:40;;;;;;;;;2.00;0.67;;;;;21.29;67.59;-19775.34;4994952;27;45342;-88
2022/10/26 09:15:42;;;;;;;;;2.00;0.00;;;;;21.38;67.34;-19777.72;5037772;27;46047;-89
2022/10/26 09:18:20;;;;;;;;;0.00;0.00;;;;;21.51;66.81;-19781.06;5025064;27;45424;-89
2022/10/26 09:21:06;;;;;;;;;2.00;0.00;;;;;21.56;66.25;-19782.38;5030606;27;45555;-89
2022/10/26 09:23:56;;;;;;;;;0.75;0.75;;;;;21.70;66.60;-19786.13;5001516;28;45334;-89
2022/10/26 09:26:40;;;;;;;;;0.00;0.00;;;;;21.68;65.84;-19785.44;5005146;28;46708;-92
2022/10/26 09:29:13;;;;;;;;;0.00;0.00;;;;;21.62;64.87;-19783.84;4973499;28;45468;-91
2022/10/26 09:31:42;;;;;;;;;1.00;1.00;;;;;22.09;64.08;-19796.09;4976977;28;45246;-92
2022/10/26 09:34:18;;;;;;;;;0.00;0.00;;;;;22.24;63.75;-19800.09;4995074;28;45567;-89
2022/10/26 09:36:43;;;;;;;;;0.00;0.00;;;;;22.19;63.65;-19798.75;4976549;27;47609;-89
2022/10/26 09:39:15;;;;;;;;;3.00;0.25;;;;;22.52;63.22;-19807.25;5064860;27;45405;-89
2022/10/26 09:41:57;;;;;;;;;0.00;0.00;;;;;22.48;62.67;-19806.19;4977094;28;45439;-90
2022/10/26 09:45:02;;;;;;;;;0.00;0.00;;;;;22.88;62.06;-19816.69;4994941;27;45314;-90
2022/10/26 09:47:35;;;;;;;;;0.00;0.00;;;;;23.07;60.72;-19821.63;5014405;28;46019;-90
2022/10/26 09:50:05;;;;;;;;;1.00;1.00;;;;;23.20;60.29;-19824.81;5009396;28;45429;-90
2022/10/26 09:52:31;;;;;;;;;0.00;0.00;;;;;23.34;60.44;-19828.53;5016347;28;45468;-90
2022/10/26 09:54:56;;;;;;;;;0.00;0.00;;;;;23.40;59.53;-19830.13;5015290;28;45490;-90
2022/10/26 09:57:22;;;;;;;;;0.00;0.00;;;;;23.73;59.24;-19838.75;5014727;28;53208;-90
2022/10/26 09:59:50;;;;;;;;;0.25;0.25;;;;;23.64;58.97;-19836.22;5015502;28;45463;-91
2022/10/26 10:02:42;;;;;;;;;0.25;0.25;;;;;24.14;58.04;-19849.38;5014912;28;45425;-91
2022/10/26 10:05:31;;;;;;;;;2.00;0.00;;;;;24.28;57.57;-19852.81;5016845;28;45633;-91
2022/10/26 10:08:15;;;;;;;;;0.00;0.00;;;;;24.58;57.48;-19860.78;5015850;28;46117;-89
2022/10/26 10:10:58;;;;;;;;;0.00;0.00;;;;;24.97;56.47;-19870.84;5015878;28;45468;-90
2022/10/26 10:13:26;;;;;;;;;0.00;0.00;;;;;25.69;54.71;-19889.50;5015661;28;45442;-90
2022/10/26 10:16:07;;;;;;;;;0.50;0.00;;;;;27.79;51.41;-19943.72;5018390;28;45538;-90
2022/10/26 10:18:33;;;;;;;;;0.00;0.00;;;;;29.38;47.81;-19984.44;5012759;28;48217;-91
2022/10/26 10:20:59;;;;;;;;;0.00;0.00;;;;;30.72;44.46;-20018.91;5018222;28;45505;-92
2022/10/26 10:23:29;;;;;;;;;1.00;0.00;;;;;30.97;43.30;-20025.19;5003817;27;45357;-91
2022/10/26 10:26:12;;;;;;;;;0.00;0.00;;;;;29.16;44.75;-19978.91;4979430;28;45472;-91
2022/10/26 10:28:39;;;;;;;;;1.25;0.00;;;;;27.94;47.08;-19947.41;4997076;27;46364;-91
2022/10/26 10:31:19;;;;;;;;;0.00;0.00;;;;;27.02;48.82;-19923.78;4997427;27;45362;-94
2022/10/26 10:33:45;;;;;;;;;2.00;1.00;;;;;26.84;49.81;-19919.00;4997836;27;45443;-91
2022/10/26 10:36:15;;;;;;;;;0.50;0.50;;;;;26.70;50.05;-19915.44;4997783;27;45398;-91
2022/10/26 10:38:43;;;;;;;;;0.00;0.00;;;;;26.62;50.51;-19913.47;4996989;27;45529;-91
2022/10/26 10:41:18;;;;;;;;;0.00;0.00;;;;;26.83;50.61;-19918.88;4996328;27;45477;-91
2022/10/26 10:44:16;;;;;;;;;0.00;0.00;;;;;26.71;50.85;-19915.72;4996888;27;45397;-91
2022/10/26 10:46:42;;;;;;;;;1.00;0.00;;;;;26.05;50.39;-19898.66;5041194;28;45488;-90
2022/10/26 10:49:22;;;;;;;;;0.00;0.00;;;;;26.46;50.64;-19909.34;4982584;28;45752;-93
2022/10/26 10:51:48;;;;;;;;;0.00;0.00;;;;;26.37;51.17;-19906.84;4997053;27;45457;-90
2022/10/26 10:54:38;;;;;;;;;0.50;0.00;;;;;26.38;51.85;-19907.25;4996310;27;45399;-94
2022/10/26 10:57:14;;;;;;;;;1.00;1.00;;;;;27.10;49.90;-19925.75;4997071;27;45453;-91
2022/10/26 11:00:00;;;;;;;;;1.50;0.00;;;;;26.63;50.36;-19913.72;4979084;28;46319;-91
2022/10/26 11:02:47;;;;;;;;;0.00;0.00;;;;;26.44;51.10;-19908.84;4996845;27;45283;-93
2022/10/26 11:05:36;;;;;;;;;0.00;0.00;;;;;26.18;51.09;-19901.97;4997201;27;45391;-78
2022/10/26 11:08:24;;;;;;;;;3.00;0.00;;;;;28.36;48.49;-19958.22;4979150;28;45470;-77
2022/10/26 11:10:57;;;;;;;;;0.00;0.00;;;;;30.40;43.75;-20010.75;4978354;27;45472;-78
2022/10/26 11:13:32;;;;;;;;;0.00;0.00;;;;;32.53;40.85;-20065.22;4996316;27;45259;-79
2022/10/26 11:16:02;;;;;;;;;0.00;0.00;;;;;33.80;38.07;-18379.13;4994799;27;45311;-78
2022/10/26 11:18:40;;;;;;;;;0.00;0.00;;;;;33.80;37.16;-14600.03;4996541;27;45565;-79
2022/10/26 11:21:18;;;;;;;;;2.00;0.00;;;;;34.04;37.56;-13228.44;5068850;27;45415;-78
2022/10/26 11:24:17;;;;;;;;;2.00;0.00;;;;;34.52;36.84;-11169.59;4995915;27;45488;-78
2022/10/26 11:26:43;;;;;;;;;0.50;0.50;;;;;34.43;36.30;-9101.75;4994347;27;45511;-79
2022/10/26 11:29:46;;;;;;;;;0.00;0.00;;;;;33.88;37.17;-8064.22;4996539;27;45368;-80
2022/10/26 11:32:44;;;;;;;;;2.00;0.00;;;;;33.16;38.07;-7027.34;4994691;27;48146;-80
2022/10/26 11:35:23;;;;;;;;;0.00;0.00;;;;;32.37;39.08;-7023.22;4977989;27;46229;-80
2022/10/26 11:38:10;;;;;;;;;0.00;0.00;;;;;32.17;39.30;-7365.75;4995804;27;45397;-80
2022/10/26 11:40:46;;;;;;;;;0.25;0.25;;;;;31.83;39.60;-7363.72;4996023;27;45659;-81
2022/10/26 11:43:29;;;;;;;;;0.50;0.50;;;;;31.64;39.74;-7705.84;4995696;27;45504;-79